Time;durP1;ratioP1;P1;durP2;ratioP2;P2;SDS_P1;SDS_P2;PMS_P1;PMS_P2;Temp;Humidity;BMP_temperature;BMP_pressure;BME280_temperature;BME280_humidity;BME280_pressure;Samples;Min_cycle;Max_cycle;Signal;HPM_P1;HPM_P2
2023/12/26 00:01:49;;;;;;;;;;;;;;;;;;5020389;28;59214;-75
2023/12/26 00:04:15;;;;;;;;;;;;;;;;;;5022881;28;58631;-75
2023/12/26 00:06:43;;;;;;;;;;;;;;;;;;5022167;28;59685;-75
2023/12/26 00:09:08;;;;;;;;;;;;;;;;;;5019249;28;58547;-75
2023/12/26 00:11:33;;;;;;;;;;;;;;;;;;5020381;28;59500;-75
2023/12/26 00:13:58;;;;;;;;;;;;;;;;;;5017901;28;59267;-75
2023/12/26 00:16:23;;;;;;;;;;;;;;;;;;5020724;28;58547;-73
2023/12/26 00:18:48;;;;;;;;;;;;;;;;;;5020923;28;58126;-73
2023/12/26 00:21:13;;;;;;;;;;;;;;;;;;5022835;28;58901;-74
2023/12/26 00:23:39;;;;;;;;;;;;;;;;;;5022589;27;57841;-74
2023/12/26 00:26:04;;;;;;;;;;;;;;;;;;5016583;28;59414;-76
2023/12/26 00:28:29;;;;;;;;;;;;;;;;;;5023438;28;58815;-73
2023/12/26 00:30:54;;;;;;;;;;;;;;;;;;5022213;28;58046;-74
2023/12/26 00:33:19;;;;;;;;;;;;;;;;;;5021765;28;58011;-72
2023/12/26 00:35:44;;;;;;;;;;;;;;;;;;5024025;28;58787;-74
2023/12/26 00:38:09;;;;;;;;;;;;;;;;;;5006242;27;59421;-73
2023/12/26 00:40:36;;;;;;;;;;;;;;;;;;5013699;28;59295;-71
2023/12/26 00:43:01;;;;;;;;;;;;;;;;;;5023236;28;58239;-73
2023/12/26 00:45:26;;;;;;;;;;;;;;;;;;5022824;28;58045;-74
2023/12/26 00:47:51;;;;;;;;;;;;;;;;;;5022318;28;57985;-73
2023/12/26 00:50:16;;;;;;;;;;;;;;;;;;5023595;28;58369;-73
2023/12/26 00:52:41;;;;;;;;;;;;;;;;;;5021597;27;58830;-72
2023/12/26 00:55:08;;;;;;;;;;;;;;;;;;5022040;28;57876;-72
2023/12/26 00:57:33;;;;;;;;;;;;;;;;;;5024547;28;59626;-73
2023/12/26 00:59:58;;;;;;;;;;;;;;;;;;5027118;28;58953;-75
2023/12/26 01:02:24;;;;;;;;;;;;;;;;;;5026255;27;58220;-74
2023/12/26 01:04:49;;;;;;;;;;;;;;;;;;5026868;28;58832;-73
2023/12/26 01:07:14;;;;;;;;;;;;;;;;;;5026493;28;57996;-73
2023/12/26 01:09:39;;;;;;;;;;;;;;;;;;5027070;27;59077;-74
2023/12/26 01:12:04;;;;;;;;;;;;;;;;;;5027458;28;58126;-76
2023/12/26 01:14:29;;;;;;;;;;;;;;;;;;5026271;28;58176;-73
2023/12/26 01:16:54;;;;;;;;;;;;;;;;;;5025394;28;59549;-73
2023/12/26 01:19:20;;;;;;;;;;;;;;;;;;5025824;28;58434;-73
2023/12/26 01:21:45;;;;;;;;;;;;;;;;;;5025488;27;58742;-72
2023/12/26 01:24:10;;;;;;;;;;;;;;;;;;5026481;28;58022;-72
2023/12/26 01:26:35;;;;;;;;;;;;;;;;;;5025466;28;58247;-73
2023/12/26 01:29:01;;;;;;;;;;;;;;;;;;5024800;27;58102;-72
2023/12/26 01:31:26;;;;;;;;;;;;;;;;;;5024852;28;58526;-74
2023/12/26 01:33:51;;;;;;;;;;;;;;;;;;5025979;28;58501;-75
2023/12/26 01:36:17;;;;;;;;;;;;;;;;;;5024791;27;59802;-76
2023/12/26 01:38:42;;;;;;;;;;;;;;;;;;5023360;28;59726;-73
2023/12/26 01:41:07;;;;;;;;;;;;;;;;;;5023885;28;58235;-74
2023/12/26 01:43:32;;;;;;;;;;;;;;;;;;5022768;28;58226;-72
2023/12/26 01:45:58;;;;;;;;;;;;;;;;;;5022669;28;59619;-73
2023/12/26 01:48:23;;;;;;;;;;;;;;;;;;5022722;28;59085;-72
2023/12/26 01:50:48;;;;;;;;;;;;;;;;;;5023485;28;59660;-73
2023/12/26 01:53:14;;;;;;;;;;;;;;;;;;5021408;28;58095;-73
2023/12/26 01:55:40;;;;;;;;;;;;;;;;;;5017981;28;58920;-74
2023/12/26 01:58:05;;;;;;;;;;;;;;;;;;5020600;28;58177;-70
2023/12/26 02:00:30;;;;;;;;;;;;;;;;;;5023558;28;57969;-70
2023/12/26 02:02:55;;;;;;;;;;;;;;;;;;5022881;28;58621;-70
2023/12/26 02:05:20;;;;;;;;;;;;;;;;;;5022645;27;58736;-70
2023/12/26 02:07:45;;;;;;;;;;;;;;;;;;5022448;28;58161;-79
2023/12/26 02:10:10;;;;;;;;;;;;;;;;;;5022376;28;59508;-82
2023/12/26 02:12:35;;;;;;;;;;;;;;;;;;5020728;28;59543;-72
2023/12/26 02:15:00;;;;;;;;;;;;;;;;;;5024094;28;58155;-71
2023/12/26 02:17:26;;;;;;;;;;;;;;;;;;5022696;27;58744;-70
2023/12/26 02:19:51;;;;;;;;;;;;;;;;;;5017824;28;58259;-69
2023/12/26 02:22:16;;;;;;;;;;;;;;;;;;5016759;28;58633;-69
2023/12/26 02:24:42;;;;;;;;;;;;;;;;;;5019475;27;59707;-69
2023/12/26 02:27:07;;;;;;;;;;;;;;;;;;5020957;28;58534;-69
2023/12/26 02:29:32;;;;;;;;;;;;;;;;;;5020867;27;58617;-69
2023/12/26 02:31:57;;;;;;;;;;;;;;;;;;5020380;28;59148;-70
2023/12/26 02:34:23;;;;;;;;;;;;;;;;;;5021162;28;58904;-69
2023/12/26 02:36:48;;;;;;;;;;;;;;;;;;5016431;28;60831;-68
2023/12/26 02:39:13;;;;;;;;;;;;;;;;;;5019407;28;58424;-68
2023/12/26 02:41:39;;;;;;;;;;;;;;;;;;5017178;28;59612;-69
2023/12/26 02:44:04;;;;;;;;;;;;;;;;;;5019181;28;58680;-69
2023/12/26 02:46:29;;;;;;;;;;;;;;;;;;5020150;28;59094;-69
2023/12/26 02:48:54;;;;;;;;;;;;;;;;;;5018497;28;59543;-70
2023/12/26 02:51:19;;;;;;;;;;;;;;;;;;5018799;28;60096;-70
2023/12/26 02:53:44;;;;;;;;;;;;;;;;;;5018112;28;58027;-72
2023/12/26 02:56:09;;;;;;;;;;;;;;;;;;5018382;28;59244;-69
2023/12/26 02:58:36;;;;;;;;;;;;;;;;;;5018955;28;59926;-70
2023/12/26 03:01:01;;;;;;;;;;;;;;;;;;5015223;28;58895;-69
2023/12/26 03:03:26;;;;;;;;;;;;;;;;;;5017601;27;58360;-68
2023/12/26 03:05:51;;;;;;;;;;;;;;;;;;5018471;28;58319;-67
2023/12/26 03:08:16;;;;;;;;;;;;;;;;;;5017054;28;59587;-69
2023/12/26 03:10:41;;;;;;;;;;;;;;;;;;5017634;28;59101;-68
2023/12/26 03:13:06;;;;;;;;;;;;;;;;;;5016743;27;59072;-69
2023/12/26 03:15:31;;;;;;;;;;;;;;;;;;5018487;28;58811;-71
2023/12/26 03:17:57;;;;;;;;;;;;;;;;;;5020538;28;59408;-70
2023/12/26 03:20:22;;;;;;;;;;;;;;;;;;5019346;28;58222;-69
2023/12/26 03:22:47;;;;;;;;;;;;;;;;;;5017616;27;59250;-71
2023/12/26 03:25:12;;;;;;;;;;;;;;;;;;5019433;28;58321;-70
2023/12/26 03:27:37;;;;;;;;;;;;;;;;;;5017683;28;58098;-68
2023/12/26 03:30:02;;;;;;;;;;;;;;;;;;5019826;28;59823;-69
2023/12/26 03:32:27;;;;;;;;;;;;;;;;;;5020378;28;58393;-69
2023/12/26 03:34:53;;;;;;;;;;;;;;;;;;5020973;28;58279;-68
2023/12/26 03:37:18;;;;;;;;;;;;;;;;;;5018693;28;57935;-69
2023/12/26 03:39:43;;;;;;;;;;;;;;;;;;5021580;28;58008;-71
2023/12/26 03:42:08;;;;;;;;;;;;;;;;;;5020955;28;58741;-70
2023/12/26 03:44:33;;;;;;;;;;;;;;;;;;5020125;28;58561;-72
2023/12/26 03:46:58;;;;;;;;;;;;;;;;;;5018210;28;59337;-70
2023/12/26 03:49:23;;;;;;;;;;;;;;;;;;5017422;28;58309;-71
2023/12/26 03:51:49;;;;;;;;;;;;;;;;;;5020513;27;57892;-69
2023/12/26 03:54:14;;;;;;;;;;;;;;;;;;5023672;28;58832;-69
2023/12/26 03:56:39;;;;;;;;;;;;;;;;;;5017805;27;59653;-68
2023/12/26 03:59:04;;;;;;;;;;;;;;;;;;5018841;28;59209;-68
2023/12/26 04:01:30;;;;;;;;;;;;;;;;;;5018504;28;59170;-67
2023/12/26 04:03:55;;;;;;;;;;;;;;;;;;5018631;28;58696;-70
2023/12/26 04:06:20;;;;;;;;;;;;;;;;;;5019561;28;59459;-68
2023/12/26 04:08:45;;;;;;;;;;;;;;;;;;5021130;28;59174;-73
2023/12/26 04:11:10;;;;;;;;;;;;;;;;;;5017333;28;59270;-69
2023/12/26 04:13:36;;;;;;;;;;;;;;;;;;5021293;28;58597;-70
2023/12/26 04:16:01;;;;;;;;;;;;;;;;;;5019731;28;59782;-68
2023/12/26 04:18:26;;;;;;;;;;;;;;;;;;5021215;28;58525;-71
2023/12/26 04:20:51;;;;;;;;;;;;;;;;;;5017971;28;58582;-68
2023/12/26 04:23:16;;;;;;;;;;;;;;;;;;5021777;28;59037;-69
2023/12/26 04:25:41;;;;;;;;;;;;;;;;;;5019815;28;58497;-68
2023/12/26 04:28:06;;;;;;;;;;;;;;;;;;5019829;28;60037;-72
2023/12/26 04:30:31;;;;;;;;;;;;;;;;;;5018689;27;57992;-71
2023/12/26 04:32:56;;;;;;;;;;;;;;;;;;5023327;28;58826;-71
2023/12/26 04:35:22;;;;;;;;;;;;;;;;;;5019414;28;59983;-71
2023/12/26 04:37:47;;;;;;;;;;;;;;;;;;5019880;28;58452;-70
2023/12/26 04:40:12;;;;;;;;;;;;;;;;;;5021177;27;58962;-69
2023/12/26 04:42:37;;;;;;;;;;;;;;;;;;5020221;28;59659;-68
2023/12/26 04:45:02;;;;;;;;;;;;;;;;;;5020844;28;57997;-73
2023/12/26 04:47:27;;;;;;;;;;;;;;;;;;5018594;28;58909;-72
2023/12/26 04:49:52;;;;;;;;;;;;;;;;;;5021206;28;58667;-72
2023/12/26 04:52:18;;;;;;;;;;;;;;;;;;5019888;28;59737;-69
2023/12/26 04:54:43;;;;;;;;;;;;;;;;;;5019805;28;58759;-71
2023/12/26 04:57:10;;;;;;;;;;;;;;;;;;5022558;28;58124;-72
2023/12/26 04:59:35;;;;;;;;;;;;;;;;;;5020444;27;58544;-68
2023/12/26 05:02:00;;;;;;;;;;;;;;;;;;5019586;28;59409;-71
2023/12/26 05:04:25;;;;;;;;;;;;;;;;;;5019919;28;58619;-69
2023/12/26 05:06:50;;;;;;;;;;;;;;;;;;5018665;28;58435;-68
2023/12/26 05:09:16;;;;;;;;;;;;;;;;;;5020846;28;58256;-69
2023/12/26 05:11:41;;;;;;;;;;;;;;;;;;5020688;28;58580;-70
2023/12/26 05:14:06;;;;;;;;;;;;;;;;;;5018588;27;58830;-69
2023/12/26 05:16:31;;;;;;;;;;;;;;;;;;5020188;28;57876;-69
2023/12/26 05:18:56;;;;;;;;;;;;;;;;;;5021907;28;59189;-68
2023/12/26 05:21:21;;;;;;;;;;;;;;;;;;5020397;28;59461;-68
2023/12/26 05:23:46;;;;;;;;;;;;;;;;;;5019683;28;58230;-74
2023/12/26 05:26:11;;;;;;;;;;;;;;;;;;5019028;28;58256;-68
2023/12/26 05:28:37;;;;;;;;;;;;;;;;;;5020644;28;58417;-70
2023/12/26 05:31:03;;;;;;;;;;;;;;;;;;5017964;28;58531;-70
2023/12/26 05:33:28;;;;;;;;;;;;;;;;;;5020162;28;58964;-71
2023/12/26 05:35:53;;;;;;;;;;;;;;;;;;5019792;28;58315;-73
2023/12/26 05:38:18;;;;;;;;;;;;;;;;;;5020886;27;59385;-71
2023/12/26 05:40:43;;;;;;;;;;;;;;;;;;5016672;28;59881;-72
2023/12/26 05:43:08;;;;;;;;;;;;;;;;;;5021995;28;58506;-72
2023/12/26 05:45:33;;;;;;;;;;;;;;;;;;5022784;27;58743;-72
2023/12/26 05:47:58;;;;;;;;;;;;;;;;;;5023438;28;59071;-72
2023/12/26 05:50:24;;;;;;;;;;;;;;;;;;5021134;27;58082;-71
2023/12/26 05:52:49;;;;;;;;;;;;;;;;;;5022290;27;58116;-71
2023/12/26 05:55:14;;;;;;;;;;;;;;;;;;5023098;28;58169;-70
2023/12/26 05:57:39;;;;;;;;;;;;;;;;;;5021269;27;59684;-71
2023/12/26 06:00:04;;;;;;;;;;;;;;;;;;5023756;28;59716;-74
2023/12/26 06:02:29;;;;;;;;;;;;;;;;;;5023847;27;58050;-71
2023/12/26 06:04:54;;;;;;;;;;;;;;;;;;5020948;27;58897;-71
2023/12/26 06:07:19;;;;;;;;;;;;;;;;;;5019192;28;59061;-72
2023/12/26 06:09:44;;;;;;;;;;;;;;;;;;5021481;27;58266;-71
2023/12/26 06:12:09;;;;;;;;;;;;;;;;;;5024137;28;59164;-72
2023/12/26 06:14:35;;;;;;;;;;;;;;;;;;5020750;28;58924;-71
2023/12/26 06:17:01;;;;;;;;;;;;;;;;;;5020829;27;58700;-71
2023/12/26 06:19:26;;;;;;;;;;;;;;;;;;5018997;28;59289;-70
2023/12/26 06:21:51;;;;;;;;;;;;;;;;;;5021800;28;58118;-72
2023/12/26 06:24:16;;;;;;;;;;;;;;;;;;5022773;28;58781;-72
2023/12/26 06:26:41;;;;;;;;;;;;;;;;;;5022731;28;58225;-72
2023/12/26 06:29:06;;;;;;;;;;;;;;;;;;5023648;28;58230;-71
2023/12/26 06:31:31;;;;;;;;;;;;;;;;;;5020804;27;60660;-70
2023/12/26 06:33:56;;;;;;;;;;;;;;;;;;5024835;28;58669;-72
2023/12/26 06:36:21;;;;;;;;;;;;;;;;;;5023892;28;58600;-71
2023/12/26 06:38:47;;;;;;;;;;;;;;;;;;5022339;28;58885;-70
2023/12/26 06:41:12;;;;;;;;;;;;;;;;;;5022309;28;58050;-71
2023/12/26 06:43:37;;;;;;;;;;;;;;;;;;5022812;28;59296;-71
2023/12/26 06:46:02;;;;;;;;;;;;;;;;;;5022035;28;59827;-72
2023/12/26 06:48:27;;;;;;;;;;;;;;;;;;5019632;27;58999;-68
2023/12/26 06:50:52;;;;;;;;;;;;;;;;;;5020905;28;58895;-69
2023/12/26 06:53:17;;;;;;;;;;;;;;;;;;5022607;28;59058;-71
2023/12/26 06:55:42;;;;;;;;;;;;;;;;;;5021743;28;59069;-68
2023/12/26 06:58:08;;;;;;;;;;;;;;;;;;5022498;28;58864;-70
2023/12/26 07:00:33;;;;;;;;;;;;;;;;;;5021437;28;57914;-69
2023/12/26 07:02:58;;;;;;;;;;;;;;;;;;5022900;28;58698;-73
2023/12/26 07:05:23;;;;;;;;;;;;;;;;;;5020711;28;59001;-69
2023/12/26 07:07:48;;;;;;;;;;;;;;;;;;5021592;28;59500;-68
2023/12/26 07:10:13;;;;;;;;;;;;;;;;;;5024297;27;58648;-69
2023/12/26 07:12:39;;;;;;;;;;;;;;;;;;5015906;27;59251;-69
2023/12/26 07:15:04;;;;;;;;;;;;;;;;;;5023191;28;57910;-68
2023/12/26 07:17:29;;;;;;;;;;;;;;;;;;5016445;28;59132;-69
2023/12/26 07:19:54;;;;;;;;;;;;;;;;;;5020667;27;57777;-69
2023/12/26 07:22:19;;;;;;;;;;;;;;;;;;5020453;28;58646;-68
2023/12/26 07:24:44;;;;;;;;;;;;;;;;;;5021983;28;58211;-68
2023/12/26 07:27:09;;;;;;;;;;;;;;;;;;5024461;28;57861;-70
2023/12/26 07:29:34;;;;;;;;;;;;;;;;;;5018987;28;58726;-72
2023/12/26 07:31:59;;;;;;;;;;;;;;;;;;5023193;28;58540;-69
2023/12/26 07:34:24;;;;;;;;;;;;;;;;;;5021901;27;58777;-72
2023/12/26 07:36:49;;;;;;;;;;;;;;;;;;5020872;28;60821;-68
2023/12/26 07:39:14;;;;;;;;;;;;;;;;;;5020038;28;59932;-71
2023/12/26 07:41:40;;;;;;;;;;;;;;;;;;5017345;28;59586;-69
2023/12/26 07:44:05;;;;;;;;;;;;;;;;;;5019708;27;59830;-68
2023/12/26 07:46:30;;;;;;;;;;;;;;;;;;5022302;28;58133;-68
2023/12/26 07:48:55;;;;;;;;;;;;;;;;;;5019950;28;59354;-68
2023/12/26 07:51:21;;;;;;;;;;;;;;;;;;5017825;28;59556;-71
2023/12/26 07:53:46;;;;;;;;;;;;;;;;;;5020601;28;58464;-68
2023/12/26 07:56:11;;;;;;;;;;;;;;;;;;5020747;28;57950;-70
2023/12/26 07:58:37;;;;;;;;;;;;;;;;;;5018079;27;58409;-68
2023/12/26 08:01:02;;;;;;;;;;;;;;;;;;5019890;28;59327;-69
2023/12/26 08:03:27;;;;;;;;;;;;;;;;;;5018226;28;59569;-68
2023/12/26 08:05:52;;;;;;;;;;;;;;;;;;5020995;28;58109;-72
2023/12/26 08:08:17;;;;;;;;;;;;;;;;;;5017989;27;58472;-72
2023/12/26 08:10:44;;;;;;;;;;;;;;;;;;5019033;28;59768;-72
2023/12/26 08:13:09;;;;;;;;;;;;;;;;;;5019716;28;58176;-71
2023/12/26 08:15:34;;;;;;;;;;;;;;;;;;5017703;27;58667;-71
2023/12/26 08:18:00;;;;;;;;;;;;;;;;;;5021588;28;59028;-72
2023/12/26 08:20:25;;;;;;;;;;;;;;;;;;5045183;27;58757;-71
2023/12/26 08:22:50;;;;;;;;;;;;;;;;;;5018713;27;59865;-71
2023/12/26 08:25:15;;;;;;;;;;;;;;;;;;5019660;28;58142;-71
2023/12/26 08:27:40;;;;;;;;;;;;;;;;;;5020182;28;58514;-71
2023/12/26 08:30:05;;;;;;;;;;;;;;;;;;5021413;28;57886;-71
2023/12/26 08:32:30;;;;;;;;;;;;;;;;;;5020431;28;58536;-73
2023/12/26 08:34:55;;;;;;;;;;;;;;;;;;5024875;28;58874;-71
2023/12/26 08:37:20;;;;;;;;;;;;;;;;;;5020075;28;58941;-71
2023/12/26 08:39:46;;;;;;;;;;;;;;;;;;5018918;28;57813;-73
2023/12/26 08:42:11;;;;;;;;;;;;;;;;;;5019538;28;58732;-71
2023/12/26 08:44:36;;;;;;;;;;;;;;;;;;5020109;28;58869;-72
2023/12/26 08:47:01;;;;;;;;;;;;;;;;;;5017875;28;58467;-71
2023/12/26 08:49:26;;;;;;;;;;;;;;;;;;5017432;28;59694;-74
2023/12/26 08:51:51;;;;;;;;;;;;;;;;;;5016895;28;57945;-71
2023/12/26 08:54:16;;;;;;;;;;;;;;;;;;5019201;28;63658;-70
2023/12/26 08:56:41;;;;;;;;;;;;;;;;;;5018375;28;58983;-70
2023/12/26 08:59:06;;;;;;;;;;;;;;;;;;5018367;28;58299;-71
2023/12/26 09:01:31;;;;;;;;;;;;;;;;;;5019411;28;59599;-71
2023/12/26 09:03:56;;;;;;;;;;;;;;;;;;5018167;28;57837;-72
2023/12/26 09:06:22;;;;;;;;;;;;;;;;;;5017739;27;58671;-70
2023/12/26 09:08:47;;;;;;;;;;;;;;;;;;5020929;28;59060;-68
2023/12/26 09:11:12;;;;;;;;;;;;;;;;;;5018815;27;58339;-68
2023/12/26 09:13:37;;;;;;;;;;;;;;;;;;5018784;28;58149;-70
2023/12/26 09:16:02;;;;;;;;;;;;;;;;;;5018216;27;59956;-68
2023/12/26 09:18:27;;;;;;;;;;;;;;;;;;5015061;28;58882;-70
2023/12/26 09:20:52;;;;;;;;;;;;;;;;;;5021935;28;58306;-71
2023/12/26 09:23:19;;;;;;;;;;;;;;;;;;5023073;27;59055;-68
2023/12/26 09:25:44;;;;;;;;;;;;;;;;;;5020287;27;58671;-68
2023/12/26 09:28:09;;;;;;;;;;;;;;;;;;5019853;27;59313;-69
2023/12/26 09:30:34;;;;;;;;;;;;;;;;;;5016554;27;59348;-69
2023/12/26 09:32:59;;;;;;;;;;;;;;;;;;5023097;28;58638;-71
2023/12/26 09:35:24;;;;;;;;;;;;;;;;;;5021792;27;60161;-71
2023/12/26 09:37:49;;;;;;;;;;;;;;;;;;5024360;27;58056;-71
2023/12/26 09:40:15;;;;;;;;;;;;;;;;;;5016164;27;58489;-72
2023/12/26 09:42:40;;;;;;;;;;;;;;;;;;5021434;28;58851;-70
2023/12/26 09:45:05;;;;;;;;;;;;;;;;;;5022171;28;58960;-71
2023/12/26 09:47:30;;;;;;;;;;;;;;;;;;5020726;27;58219;-70
2023/12/26 09:49:55;;;;;;;;;;;;;;;;;;5016284;28;58653;-69
2023/12/26 09:52:20;;;;;;;;;;;;;;;;;;5017386;27;58754;-69
2023/12/26 09:54:45;;;;;;;;;;;;;;;;;;5016620;28;59134;-69
2023/12/26 09:57:11;;;;;;;;;;;;;;;;;;5016541;28;58334;-77
2023/12/26 09:59:37;;;;;;;;;;;;;;;;;;5019247;27;58531;-75
2023/12/26 10:02:02;;;;;;;;;;;;;;;;;;5016021;27;59091;-73
2023/12/26 10:04:28;;;;;;;;;;;;;;;;;;5018499;28;58410;-75
2023/12/26 10:06:53;;;;;;;;;;;;;;;;;;5018663;28;58790;-76
2023/12/26 10:09:19;;;;;;;;;;;;;;;;;;5024629;28;59043;-77
2023/12/26 10:11:44;;;;;;;;;;;;;;;;;;5022320;28;58124;-77
2023/12/26 10:14:09;;;;;;;;;;;;;;;;;;5023321;28;58911;-77
2023/12/26 10:16:34;;;;;;;;;;;;;;;;;;5023516;27;58590;-74
2023/12/26 10:18:59;;;;;;;;;;;;;;;;;;5022614;28;59561;-76
2023/12/26 10:21:24;;;;;;;;;;;;;;;;;;5022071;28;59964;-75
2023/12/26 10:23:49;;;;;;;;;;;;;;;;;;5024937;28;58772;-75
2023/12/26 10:26:14;;;;;;;;;;;;;;;;;;5023450;27;58383;-76
2023/12/26 10:28:39;;;;;;;;;;;;;;;;;;5026206;28;58847;-78
2023/12/26 10:31:04;;;;;;;;;;;;;;;;;;5022576;28;59200;-77
2023/12/26 10:33:29;;;;;;;;;;;;;;;;;;5021886;28;59100;-77
2023/12/26 10:35:55;;;;;;;;;;;;;;;;;;5023558;28;58185;-78
2023/12/26 10:38:20;;;;;;;;;;;;;;;;;;5022647;28;59239;-77
2023/12/26 10:40:45;;;;;;;;;;;;;;;;;;5021753;28;58396;-77
2023/12/26 10:43:10;;;;;;;;;;;;;;;;;;5026144;28;58897;-77
2023/12/26 10:45:35;;;;;;;;;;;;;;;;;;5024699;27;58546;-77
2023/12/26 10:48:00;;;;;;;;;;;;;;;;;;5025930;28;58905;-77
2023/12/26 10:50:25;;;;;;;;;;;;;;;;;;5024438;28;58058;-77
2023/12/26 10:52:52;;;;;;;;;;;;;;;;;;5022924;28;59829;-80
2023/12/26 10:55:18;;;;;;;;;;;;;;;;;;5023807;28;58270;-76
2023/12/26 10:57:43;;;;;;;;;;;;;;;;;;5026380;27;58768;-77
2023/12/26 11:00:08;;;;;;;;;;;;;;;;;;5024127;28;59302;-77
2023/12/26 11:02:33;;;;;;;;;;;;;;;;;;5024083;27;57810;-78
2023/12/26 11:04:58;;;;;;;;;;;;;;;;;;5023153;27;58854;-78
2023/12/26 11:07:24;;;;;;;;;;;;;;;;;;5022986;28;58703;-76
2023/12/26 11:09:49;;;;;;;;;;;;;;;;;;5022493;28;58187;-76
2023/12/26 11:12:14;;;;;;;;;;;;;;;;;;5021977;28;57844;-77
2023/12/26 11:14:39;;;;;;;;;;;;;;;;;;5022604;28;58184;-81
2023/12/26 11:17:04;;;;;;;;;;;;;;;;;;5023922;28;59456;-82
2023/12/26 11:19:29;;;;;;;;;;;;;;;;;;5020884;28;58984;-79
2023/12/26 11:21:54;;;;;;;;;;;;;;;;;;5022065;28;58859;-82
2023/12/26 11:24:19;;;;;;;;;;;;;;;;;;5023208;28;58451;-77
2023/12/26 11:26:44;;;;;;;;;;;;;;;;;;5023603;28;58915;-79
2023/12/26 11:29:09;;;;;;;;;;;;;;;;;;5023741;28;58772;-73
2023/12/26 11:31:34;;;;;;;;;;;;;;;;;;5024227;28;60295;-74
2023/12/26 11:33:59;;;;;;;;;;;;;;;;;;5022428;27;58972;-75
2023/12/26 11:36:24;;;;;;;;;;;;;;;;;;5025096;28;58706;-75
2023/12/26 11:38:49;;;;;;;;;;;;;;;;;;5023246;28;59852;-75
2023/12/26 11:41:15;;;;;;;;;;;;;;;;;;5022423;28;57951;-76
2023/12/26 11:43:40;;;;;;;;;;;;;;;;;;5021428;28;59011;-75
2023/12/26 11:46:05;;;;;;;;;;;;;;;;;;5022406;28;59049;-76
2023/12/26 11:48:30;;;;;;;;;;;;;;;;;;5018956;28;58067;-76
2023/12/26 11:50:55;;;;;;;;;;;;;;;;;;5019708;28;58805;-75
2023/12/26 11:53:20;;;;;;;;;;;;;;;;;;5021853;28;58220;-74
2023/12/26 11:55:45;;;;;;;;;;;;;;;;;;5021075;28;58727;-75
2023/12/26 11:58:10;;;;;;;;;;;;;;;;;;5019459;28;59171;-76
2023/12/26 12:00:35;;;;;;;;;;;;;;;;;;5021909;27;58675;-76
2023/12/26 12:03:00;;;;;;;;;;;;;;;;;;5021851;28;58157;-77
2023/12/26 12:05:25;;;;;;;;;;;;;;;;;;5016529;28;59018;-77
2023/12/26 12:07:50;;;;;;;;;;;;;;;;;;5018061;28;58194;-77
2023/12/26 12:10:15;;;;;;;;;;;;;;;;;;5016864;28;59450;-76
2023/12/26 12:12:41;;;;;;;;;;;;;;;;;;5019808;28;58951;-76
2023/12/26 12:15:06;;;;;;;;;;;;;;;;;;5021621;28;59496;-75
2023/12/26 12:17:31;;;;;;;;;;;;;;;;;;5020644;28;58893;-76
2023/12/26 12:19:56;;;;;;;;;;;;;;;;;;5020087;28;57984;-75
2023/12/26 12:22:21;;;;;;;;;;;;;;;;;;5021046;27;59363;-75
2023/12/26 12:24:46;;;;;;;;;;;;;;;;;;5021082;28;60591;-75
2023/12/26 12:27:11;;;;;;;;;;;;;;;;;;5023702;28;58085;-77
2023/12/26 12:29:36;;;;;;;;;;;;;;;;;;5022485;28;58988;-77
2023/12/26 12:32:01;;;;;;;;;;;;;;;;;;5022258;28;59900;-76
2023/12/26 12:34:26;;;;;;;;;;;;;;;;;;5021988;28;58836;-76
2023/12/26 12:36:51;;;;;;;;;;;;;;;;;;5021132;28;60108;-76
2023/12/26 12:39:16;;;;;;;;;;;;;;;;;;5023615;27;58249;-76
2023/12/26 12:41:41;;;;;;;;;;;;;;;;;;5023429;28;59763;-78
2023/12/26 12:44:06;;;;;;;;;;;;;;;;;;5022443;27;58429;-76
2023/12/26 12:46:31;;;;;;;;;;;;;;;;;;5019944;28;58688;-76
2023/12/26 12:48:57;;;;;;;;;;;;;;;;;;5023450;28;60357;-77
2023/12/26 12:51:22;;;;;;;;;;;;;;;;;;5023055;28;59517;-77
2023/12/26 12:53:47;;;;;;;;;;;;;;;;;;5023834;28;58725;-77
2023/12/26 12:56:12;;;;;;;;;;;;;;;;;;5027000;27;58709;-77
2023/12/26 12:58:37;;;;;;;;;;;;;;;;;;5027115;28;58535;-77
2023/12/26 13:01:02;;;;;;;;;;;;;;;;;;5023845;27;59349;-79
2023/12/26 13:03:27;;;;;;;;;;;;;;;;;;5024946;28;59827;-78
2023/12/26 13:05:52;;;;;;;;;;;;;;;;;;5024889;28;58688;-79
2023/12/26 13:08:17;;;;;;;;;;;;;;;;;;5025231;28;59450;-81
2023/12/26 13:10:42;;;;;;;;;;;;;;;;;;5025721;27;59251;-78
2023/12/26 13:13:07;;;;;;;;;;;;;;;;;;5027297;28;58507;-76
2023/12/26 13:15:32;;;;;;;;;;;;;;;;;;5024134;28;59457;-78
2023/12/26 13:17:57;;;;;;;;;;;;;;;;;;5027012;28;59236;-76
2023/12/26 13:20:22;;;;;;;;;;;;;;;;;;5024541;28;58621;-77
2023/12/26 13:22:47;;;;;;;;;;;;;;;;;;5025356;28;59894;-76
2023/12/26 13:25:13;;;;;;;;;;;;;;;;;;5026586;27;58423;-76
2023/12/26 13:27:38;;;;;;;;;;;;;;;;;;5025295;28;58684;-76
2023/12/26 13:30:03;;;;;;;;;;;;;;;;;;5026354;28;58639;-77
2023/12/26 13:32:28;;;;;;;;;;;;;;;;;;5025474;28;58400;-78
2023/12/26 13:34:53;;;;;;;;;;;;;;;;;;5025872;28;59284;-77
2023/12/26 13:37:18;;;;;;;;;;;;;;;;;;5024867;28;58943;-76
2023/12/26 13:39:43;;;;;;;;;;;;;;;;;;5026901;28;58926;-78
2023/12/26 13:42:08;;;;;;;;;;;;;;;;;;5024880;28;59082;-77
2023/12/26 13:44:33;;;;;;;;;;;;;;;;;;5024249;28;58592;-77
2023/12/26 13:46:58;;;;;;;;;;;;;;;;;;5024745;28;59225;-78
2023/12/26 13:49:23;;;;;;;;;;;;;;;;;;5025022;28;59360;-75
2023/12/26 13:51:49;;;;;;;;;;;;;;;;;;5024919;28;58304;-77
2023/12/26 13:54:14;;;;;;;;;;;;;;;;;;5026013;28;60115;-75
2023/12/26 13:56:39;;;;;;;;;;;;;;;;;;5025763;28;58844;-76
2023/12/26 13:59:04;;;;;;;;;;;;;;;;;;5025844;28;58771;-76
2023/12/26 14:01:29;;;;;;;;;;;;;;;;;;5022792;28;58937;-78
2023/12/26 14:03:55;;;;;;;;;;;;;;;;;;5024242;28;58737;-76
2023/12/26 14:06:21;;;;;;;;;;;;;;;;;;5023878;28;59300;-78
2023/12/26 14:08:46;;;;;;;;;;;;;;;;;;5025824;28;59986;-77
2023/12/26 14:11:11;;;;;;;;;;;;;;;;;;5025189;27;58637;-77
2023/12/26 14:13:36;;;;;;;;;;;;;;;;;;5023600;27;59454;-76
2023/12/26 14:16:02;;;;;;;;;;;;;;;;;;5022462;28;59035;-78
2023/12/26 14:18:27;;;;;;;;;;;;;;;;;;5024932;27;58645;-77
2023/12/26 14:20:52;;;;;;;;;;;;;;;;;;5026514;28;59569;-76
2023/12/26 14:23:17;;;;;;;;;;;;;;;;;;5024540;28;58581;-78
2023/12/26 14:25:42;;;;;;;;;;;;;;;;;;5025884;28;60231;-76
2023/12/26 14:28:07;;;;;;;;;;;;;;;;;;5025061;28;58955;-78
2023/12/26 14:30:32;;;;;;;;;;;;;;;;;;5023276;28;58640;-77
2023/12/26 14:32:57;;;;;;;;;;;;;;;;;;5023716;28;59237;-76
2023/12/26 14:35:22;;;;;;;;;;;;;;;;;;5022655;28;58962;-79
2023/12/26 14:37:47;;;;;;;;;;;;;;;;;;5024339;28;58432;-76
2023/12/26 14:40:12;;;;;;;;;;;;;;;;;;5023807;28;60385;-78
2023/12/26 14:42:37;;;;;;;;;;;;;;;;;;5024649;28;58788;-76
2023/12/26 14:45:03;;;;;;;;;;;;;;;;;;5024491;28;58809;-77
2023/12/26 14:47:28;;;;;;;;;;;;;;;;;;5022191;27;59401;-76
2023/12/26 14:49:53;;;;;;;;;;;;;;;;;;5025034;28;58769;-80
2023/12/26 14:52:18;;;;;;;;;;;;;;;;;;5023008;28;59393;-78
2023/12/26 14:54:43;;;;;;;;;;;;;;;;;;5023808;28;59294;-79
2023/12/26 14:57:08;;;;;;;;;;;;;;;;;;5025458;28;58767;-75
2023/12/26 14:59:33;;;;;;;;;;;;;;;;;;5024373;27;59503;-78
2023/12/26 15:01:59;;;;;;;;;;;;;;;;;;5022482;28;59010;-77
2023/12/26 15:04:24;;;;;;;;;;;;;;;;;;5026387;28;58522;-76
2023/12/26 15:06:49;;;;;;;;;;;;;;;;;;5020616;28;58605;-78
2023/12/26 15:09:14;;;;;;;;;;;;;;;;;;5024693;28;58366;-75
2023/12/26 15:11:40;;;;;;;;;;;;;;;;;;5024530;28;59435;-78
2023/12/26 15:14:05;;;;;;;;;;;;;;;;;;5022151;28;59017;-79
2023/12/26 15:16:30;;;;;;;;;;;;;;;;;;5022238;28;58366;-77
2023/12/26 15:18:55;;;;;;;;;;;;;;;;;;5022768;28;59697;-75
2023/12/26 15:21:20;;;;;;;;;;;;;;;;;;5020018;28;59184;-76
2023/12/26 15:23:49;;;;;;;;;;;;;;;;;;5021908;28;58447;-76
2023/12/26 15:26:14;;;;;;;;;;;;;;;;;;5022051;28;59710;-78
2023/12/26 15:28:39;;;;;;;;;;;;;;;;;;5024134;28;59123;-78
2023/12/26 15:31:04;;;;;;;;;;;;;;;;;;5021891;28;59597;-76
2023/12/26 15:33:29;;;;;;;;;;;;;;;;;;5022764;28;58849;-76
2023/12/26 15:35:54;;;;;;;;;;;;;;;;;;5023677;28;58756;-78
2023/12/26 15:38:19;;;;;;;;;;;;;;;;;;5024587;28;59281;-76
2023/12/26 15:40:44;;;;;;;;;;;;;;;;;;5021814;28;58950;-76
2023/12/26 15:43:09;;;;;;;;;;;;;;;;;;5025003;28;58755;-75
2023/12/26 15:45:34;;;;;;;;;;;;;;;;;;5023518;28;59400;-75
2023/12/26 15:48:01;;;;;;;;;;;;;;;;;;5024942;28;58849;-75
2023/12/26 15:50:26;;;;;;;;;;;;;;;;;;5022785;27;59579;-76
2023/12/26 15:52:53;;;;;;;;;;;;;;;;;;5021833;28;58980;-79
2023/12/26 15:55:20;;;;;;;;;;;;;;;;;;5021004;28;58285;-78
2023/12/26 15:57:45;;;;;;;;;;;;;;;;;;5021410;28;60131;-77
2023/12/26 16:00:10;;;;;;;;;;;;;;;;;;5022409;28;60665;-78
2023/12/26 16:02:36;;;;;;;;;;;;;;;;;;5022699;28;58933;-76
2023/12/26 16:05:01;;;;;;;;;;;;;;;;;;5022879;28;60266;-76
2023/12/26 16:07:26;;;;;;;;;;;;;;;;;;5021884;28;59522;-77
2023/12/26 16:09:51;;;;;;;;;;;;;;;;;;5023661;28;58326;-75
2023/12/26 16:12:16;;;;;;;;;;;;;;;;;;5022580;28;58543;-76
2023/12/26 16:14:41;;;;;;;;;;;;;;;;;;5022200;28;58678;-76
2023/12/26 16:17:06;;;;;;;;;;;;;;;;;;5021785;28;59397;-77
2023/12/26 16:19:31;;;;;;;;;;;;;;;;;;5019350;28;58789;-78
2023/12/26 16:21:56;;;;;;;;;;;;;;;;;;5018542;28;58441;-77
2023/12/26 16:24:21;;;;;;;;;;;;;;;;;;5020077;27;58805;-75
2023/12/26 16:26:47;;;;;;;;;;;;;;;;;;5021869;28;58877;-76
2023/12/26 16:29:12;;;;;;;;;;;;;;;;;;5022116;28;58367;-76
2023/12/26 16:31:37;;;;;;;;;;;;;;;;;;5020886;28;58904;-80